Aérodrome :
LOGIN :

S'inscrire | Disclaimer

   EN    FR    IT 

 










Légende :    VFR   VFR Marginal   IFR   IFR Intensif   IFR Très Intensif
Visi : 
Plafond : 
>= 8 km
>= 3000ft
5 à 8 km
1000 à 3000 ft
1500m à 5 km
500 à 1000 ft
800 à 1500m
200 à 500 ft
< 800m
< 200 ft
Symboles :   Orages  Brouillard  Fortes neiges  Fortes précipitations  Vent > 20 kt
SIGMETs :   Divers  Orages  Givrage  Turbulence  Onde Orograph.  Cendres Volcan.






- Altitude de l'aérodrome : 218 ft
- Code IATA : LBG


LFPB - Paris / Le Bourget

DERNIER METAR :
  • 150730Z AUTO 24009KT 9999 FEW029 09/06 Q1002 NOSIG

METARs EXPIRÉS :
  • 150700Z AUTO 23008KT 200V260 9999 FEW023 09/06 Q1002 NOSIG
  • 150630Z AUTO 24011KT CAVOK 10/06 Q1001 NOSIG
  • 150600Z AUTO 23010KT CAVOK 10/07 Q1000 TEMPO 25015G25KT
  • 150530Z AUTO 23011KT 9999 BKN021 BKN026 BKN041 10/07 Q1000 TEMPO 20015G25KT

TAF TAF LFPB
Valide du 15 à 06h jusqu'au 16 à 06h UTC


150500Z 1506/1606 24012KT 9999 SCT040
PROB40
TEMPO 1506/1507 25015G25KT
PROB30
TEMPO 1510/1512 22015G25KT 4000 SHRA SCT040TCU
PROB40
TEMPO 1601/1605 BKN008
ATIS : +33 1 48 62 43 92



MET'MAP, la Météo Aéronautique d'un coup d'oeil ! - Copyright ORBIFLY Décembre 2007 - Disclaimer

ORBIFLY MET'MAP TEAM :

Programmation & Développement : Alexandra Zaïnal
Sur une idée originale de : Baudouin d'Aumeries
Assistance à la programmation : Marc-Olivier Méhu
Soutien technique & logistique : Manuel Goepfert

Contact : metmap@orbifly.com




SOURCES & CREDITS :

   NOAA